createdAt,value
2022-09-03T00:01:55.245Z,59.58
2022-09-03T00:04:37.588Z,58.74
2022-09-03T00:07:09.045Z,59.20
2022-09-03T00:09:46.321Z,58.93
2022-09-03T00:12:19.998Z,58.58
2022-09-03T00:15:06.478Z,58.10
2022-09-03T00:17:37.211Z,58.17
2022-09-03T00:20:17.589Z,57.63
2022-09-03T00:22:50.367Z,57.51
2022-09-03T00:25:21.417Z,57.73
2022-09-03T00:27:55.242Z,58.09
2022-09-03T00:30:24.488Z,57.76
2022-09-03T00:32:57.497Z,58.36
2022-09-03T00:35:28.710Z,57.77
2022-09-03T00:37:56.033Z,57.26
2022-09-03T00:40:50.675Z,57.27
2022-09-03T00:43:26.452Z,58.03
2022-09-03T00:46:11.778Z,58.20
2022-09-03T00:48:55.904Z,57.87
2022-09-03T00:52:05.605Z,58.35
2022-09-03T00:54:56.738Z,58.40
2022-09-03T00:58:00.984Z,57.46
2022-09-03T01:00:29.246Z,58.90
2022-09-03T01:03:34.211Z,58.92
2022-09-03T01:06:15.503Z,59.76
2022-09-03T01:09:03.662Z,59.55
2022-09-03T01:12:13.679Z,59.58
2022-09-03T01:14:50.434Z,58.93
2022-09-03T01:17:37.451Z,58.62
2022-09-03T01:20:15.851Z,58.18
2022-09-03T01:23:02.659Z,58.43
2022-09-03T01:25:48.693Z,58.73
2022-09-03T01:28:33.537Z,58.48
2022-09-03T01:31:27.148Z,58.60
2022-09-03T01:34:06.072Z,57.91
2022-09-03T01:36:44.806Z,58.52
2022-09-03T01:39:24.481Z,57.43
2022-09-03T01:42:15.866Z,56.94
2022-09-03T01:45:09.614Z,57.11
2022-09-03T01:47:51.636Z,57.59
2022-09-03T01:50:44.096Z,57.44
2022-09-03T01:53:35.845Z,57.57
2022-09-03T01:56:15.556Z,58.13
2022-09-03T01:59:01.144Z,57.97
2022-09-03T02:01:36.936Z,58.26
2022-09-03T02:04:14.812Z,58.42
2022-09-03T02:06:41.716Z,58.59
2022-09-03T02:09:08.379Z,58.43
2022-09-03T02:11:35.042Z,58.08
2022-09-03T02:14:01.795Z,57.91
2022-09-03T02:16:31.969Z,57.34
2022-09-03T02:19:02.255Z,57.58
2022-09-03T02:21:35.038Z,57.48
2022-09-03T02:24:03.584Z,57.39
2022-09-03T02:26:30.351Z,57.32
2022-09-03T02:28:57.891Z,57.42
2022-09-03T02:31:24.918Z,57.39
2022-09-03T02:33:51.918Z,56.61
2022-09-03T02:36:21.854Z,58.41
2022-09-03T02:38:52.342Z,58.06
2022-09-03T02:41:19.295Z,57.99
2022-09-03T02:44:02.998Z,58.32
2022-09-03T02:46:36.308Z,57.94
2022-09-03T02:49:03.183Z,57.36
2022-09-03T02:51:38.744Z,58.13
2022-09-03T02:54:06.395Z,57.88
2022-09-03T02:56:33.112Z,59.04
2022-09-03T02:59:00.363Z,58.84
2022-09-03T03:01:27.454Z,58.92
2022-09-03T03:03:54.780Z,59.88
2022-09-03T03:06:22.221Z,58.86
2022-09-03T03:08:49.966Z,59.26
2022-09-03T03:11:18.462Z,59.63
2022-09-03T03:13:46.248Z,59.96
2022-09-03T03:16:13.964Z,59.06
2022-09-03T03:18:41.232Z,59.86
2022-09-03T03:21:10.009Z,60.05
2022-09-03T03:23:38.130Z,59.63
2022-09-03T03:26:07.316Z,59.77
2022-09-03T03:28:34.620Z,60.07
2022-09-03T03:31:07.869Z,60.18
2022-09-03T03:33:34.980Z,60.24
2022-09-03T03:36:16.075Z,60.42
2022-09-03T03:38:44.150Z,60.44
2022-09-03T03:41:13.772Z,60.36
2022-09-03T03:43:40.746Z,61.24
2022-09-03T03:46:07.663Z,60.68
2022-09-03T03:48:34.450Z,60.48
2022-09-03T03:51:04.350Z,60.93
2022-09-03T03:53:31.692Z,61.14
2022-09-03T03:56:00.459Z,61.27
2022-09-03T03:58:28.863Z,61.02
2022-09-03T04:00:55.759Z,61.10
2022-09-03T04:03:22.483Z,60.21
2022-09-03T04:05:59.869Z,60.39
2022-09-03T04:08:29.839Z,60.75
2022-09-03T04:11:01.234Z,60.74
2022-09-03T04:13:38.738Z,60.49
2022-09-03T04:16:10.660Z,61.00
2022-09-03T04:18:38.320Z,61.30
2022-09-03T04:21:18.842Z,60.51
2022-09-03T04:23:46.649Z,60.54
2022-09-03T04:26:16.071Z,60.78
2022-09-03T04:28:43.080Z,61.21
2022-09-03T04:31:11.290Z,61.23
2022-09-03T04:33:38.974Z,60.89
2022-09-03T04:36:08.631Z,61.41
2022-09-03T04:38:36.962Z,61.13
2022-09-03T04:41:05.057Z,60.27
2022-09-03T04:43:35.188Z,60.74
2022-09-03T04:46:05.279Z,60.47
2022-09-03T04:48:33.111Z,60.52
2022-09-03T04:51:15.628Z,60.57
2022-09-03T04:53:45.612Z,60.72
2022-09-03T04:56:17.290Z,60.52
2022-09-03T04:58:44.829Z,61.14
2022-09-03T05:01:13.391Z,60.79
2022-09-03T05:03:40.221Z,61.04
2022-09-03T05:06:08.506Z,61.70
2022-09-03T05:08:36.935Z,61.76
2022-09-03T05:11:05.188Z,61.86
2022-09-03T05:13:33.828Z,60.75
2022-09-03T05:16:05.975Z,60.96
2022-09-03T05:18:33.172Z,60.95
2022-09-03T05:21:06.421Z,60.94
2022-09-03T05:23:37.741Z,60.88
2022-09-03T05:26:10.878Z,60.53
2022-09-03T05:28:39.226Z,60.84
2022-09-03T05:31:13.192Z,61.01
2022-09-03T05:33:44.287Z,60.01
2022-09-03T05:36:13.176Z,60.51
2022-09-03T05:38:40.045Z,61.32
2022-09-03T05:41:09.204Z,61.54
2022-09-03T05:43:36.546Z,61.97
2022-09-03T05:46:06.056Z,62.08
2022-09-03T05:48:35.742Z,61.24
2022-09-03T05:51:16.656Z,61.33
2022-09-03T05:53:48.074Z,60.77
2022-09-03T05:56:20.174Z,60.99
2022-09-03T05:58:49.267Z,60.97
2022-09-03T06:01:24.157Z,60.07
2022-09-03T06:03:55.629Z,60.46
2022-09-03T06:06:25.772Z,60.85
2022-09-03T06:08:53.677Z,59.10
2022-09-03T06:11:21.689Z,59.91
2022-09-03T06:13:48.494Z,59.14
2022-09-03T06:16:15.865Z,59.08
2022-09-03T06:18:42.679Z,59.02
2022-09-03T06:21:09.407Z,58.78
2022-09-03T06:23:36.478Z,58.95
2022-09-03T06:26:08.742Z,59.87
2022-09-03T06:28:37.993Z,59.21
2022-09-03T06:31:06.924Z,59.64
2022-09-03T06:33:35.467Z,59.54
2022-09-03T06:36:06.869Z,60.00
2022-09-03T06:38:37.344Z,59.89
2022-09-03T06:41:06.607Z,59.83
2022-09-03T06:43:38.890Z,58.87
2022-09-03T06:46:08.178Z,59.47
2022-09-03T06:48:35.748Z,58.66
2022-09-03T06:51:10.107Z,58.74
2022-09-03T06:53:41.240Z,58.05
2022-09-03T06:56:10.223Z,57.92
2022-09-03T06:58:38.875Z,58.25
2022-09-03T07:01:07.712Z,58.47
2022-09-03T07:03:38.263Z,58.14
2022-09-03T07:06:13.407Z,58.83
2022-09-03T07:08:40.521Z,58.57
2022-09-03T07:11:09.478Z,59.02
2022-09-03T07:13:41.850Z,58.69
2022-09-03T07:16:09.458Z,58.36
2022-09-03T07:18:37.014Z,57.53
2022-09-03T07:21:09.382Z,56.46
2022-09-03T07:23:37.306Z,56.99
2022-09-03T07:26:06.670Z,57.16
2022-09-03T07:28:36.094Z,55.95
2022-09-03T07:31:15.207Z,56.13
2022-09-03T07:33:43.229Z,56.10
2022-09-03T07:36:15.390Z,55.60
2022-09-03T07:38:44.920Z,55.47
2022-09-03T07:41:23.913Z,54.44
2022-09-03T07:43:57.362Z,54.14
2022-09-03T07:46:26.705Z,54.61
2022-09-03T07:48:55.235Z,54.49
2022-09-03T07:51:27.926Z,55.07
2022-09-03T07:53:59.884Z,55.44
2022-09-03T07:56:27.289Z,54.97
2022-09-03T07:58:56.910Z,54.28
2022-09-03T08:01:26.155Z,54.59
2022-09-03T08:03:53.697Z,54.95
2022-09-03T08:06:22.964Z,54.40
2022-09-03T08:08:49.872Z,52.29
2022-09-03T08:11:19.480Z,52.70
2022-09-03T08:13:54.955Z,51.81
2022-09-03T08:16:21.726Z,53.10
2022-09-03T08:18:51.218Z,51.46
2022-09-03T08:21:20.188Z,50.93
2022-09-03T08:23:48.690Z,51.81
2022-09-03T08:26:17.482Z,52.37
2022-09-03T08:28:44.990Z,53.70
2022-09-03T08:31:17.678Z,53.22
2022-09-03T08:33:46.435Z,52.16
2022-09-03T08:36:17.819Z,51.42
2022-09-03T08:38:46.512Z,52.43
2022-09-03T08:41:24.393Z,53.42
2022-09-03T08:44:07.219Z,54.05
2022-09-03T08:46:42.657Z,52.85
2022-09-03T08:49:11.946Z,51.24
2022-09-03T08:51:40.587Z,51.21
2022-09-03T08:54:09.649Z,49.02
2022-09-03T08:56:39.543Z,48.03
2022-09-03T08:59:06.669Z,47.14
2022-09-03T09:01:33.550Z,48.22
2022-09-03T09:04:22.626Z,48.87
2022-09-03T09:07:05.056Z,49.19
2022-09-03T09:09:38.129Z,48.43
2022-09-03T09:12:41.277Z,48.61
2022-09-03T09:15:34.900Z,48.31
2022-09-03T09:18:23.963Z,48.35
2022-09-03T09:21:08.213Z,50.96
2022-09-03T09:23:38.435Z,51.27
2022-09-03T09:26:09.244Z,51.98
2022-09-03T09:28:40.799Z,52.96
2022-09-03T09:31:12.594Z,52.78
2022-09-03T09:33:39.377Z,51.76
2022-09-03T09:36:08.860Z,52.14
2022-09-03T09:38:37.583Z,51.76
2022-09-03T09:41:19.482Z,53.17
2022-09-03T09:43:48.058Z,53.50
2022-09-03T09:46:22.866Z,55.04
2022-09-03T09:48:58.977Z,54.42
2022-09-03T09:51:31.215Z,53.80
2022-09-03T09:54:21.923Z,51.81
2022-09-03T09:56:59.713Z,50.68
2022-09-03T09:59:26.483Z,51.36
2022-09-03T10:02:24.107Z,51.22
2022-09-03T10:04:51.087Z,51.04
2022-09-03T10:07:28.139Z,50.78
2022-09-03T10:10:00.746Z,51.80
2022-09-03T10:12:35.900Z,53.50
2022-09-03T10:15:10.584Z,53.34
2022-09-03T10:17:40.285Z,52.66
2022-09-03T10:20:31.365Z,51.28
2022-09-03T10:23:19.269Z,52.45
2022-09-03T10:26:10.477Z,53.67
2022-09-03T10:28:42.723Z,52.29
2022-09-03T10:31:16.227Z,51.71
2022-09-03T10:33:59.186Z,52.88
2022-09-03T10:36:37.180Z,53.42
2022-09-03T10:39:25.352Z,53.67
2022-09-03T10:42:21.963Z,51.01
2022-09-03T10:45:20.029Z,51.24
2022-09-03T10:48:07.906Z,48.81
2022-09-03T10:50:53.591Z,49.23
2022-09-03T10:53:27.261Z,49.14
2022-09-03T10:56:02.123Z,47.95
2022-09-03T10:58:53.971Z,50.36
2022-09-03T11:01:39.847Z,50.73
2022-09-03T11:04:44.414Z,48.89
2022-09-03T11:07:15.417Z,49.89
2022-09-03T11:09:46.387Z,51.83
2022-09-03T11:12:23.252Z,47.65
2022-09-03T11:15:15.689Z,49.91
2022-09-03T11:17:47.848Z,49.40
2022-09-03T11:20:14.900Z,51.86
2022-09-03T11:22:43.304Z,50.22
2022-09-03T11:25:11.571Z,52.13
2022-09-03T11:27:41.336Z,48.65
2022-09-03T11:30:10.530Z,49.62
2022-09-03T11:32:40.871Z,50.87
2022-09-03T11:35:28.712Z,49.85
2022-09-03T11:38:06.681Z,50.32
2022-09-03T11:40:37.003Z,50.01
2022-09-03T11:43:24.591Z,51.23
2022-09-03T11:46:06.551Z,49.67
2022-09-03T11:48:44.045Z,49.03
2022-09-03T11:51:32.429Z,50.41
2022-09-03T11:54:14.252Z,50.71
2022-09-03T11:56:42.616Z,49.78
2022-09-03T11:59:12.573Z,50.36
2022-09-03T12:01:44.869Z,49.82
2022-09-03T12:04:15.318Z,50.50
2022-09-03T12:07:20.816Z,51.75
2022-09-03T12:09:51.685Z,53.77
2022-09-03T12:12:58.917Z,53.84
2022-09-03T12:15:31.547Z,55.70
2022-09-03T12:18:19.818Z,56.31
2022-09-03T12:20:47.979Z,56.30
2022-09-03T12:23:28.286Z,57.09
2022-09-03T12:25:55.751Z,58.08
2022-09-03T12:28:25.000Z,57.45
2022-09-03T12:30:53.937Z,58.13
2022-09-03T12:33:22.002Z,59.10
2022-09-03T12:35:59.865Z,58.72
2022-09-03T12:38:29.524Z,59.91
2022-09-03T12:43:51.806Z,59.71
2022-09-03T12:46:21.148Z,59.81
2022-09-03T12:51:50.070Z,60.83
2022-09-03T12:54:20.119Z,62.81
2022-09-03T12:56:56.796Z,63.53
2022-09-03T12:59:24.483Z,64.45
2022-09-03T13:01:54.545Z,64.92
2022-09-03T13:04:25.576Z,65.77
2022-09-03T13:07:07.442Z,66.69
2022-09-03T13:09:36.754Z,67.44
2022-09-03T13:12:07.584Z,68.79
2022-09-03T13:14:45.209Z,69.26
2022-09-03T13:17:16.588Z,70.88
2022-09-03T13:19:58.386Z,73.39
2022-09-03T13:22:54.603Z,74.93
2022-09-03T13:25:29.981Z,76.66
2022-09-03T13:28:22.622Z,78.79
2022-09-03T13:30:56.905Z,78.79
2022-09-03T13:33:33.590Z,78.26
2022-09-03T13:36:20.188Z,78.48
2022-09-03T13:38:54.966Z,78.30
2022-09-03T13:41:38.668Z,78.37
2022-09-03T13:44:19.028Z,77.44
2022-09-03T13:46:54.782Z,76.70
2022-09-03T13:49:40.408Z,76.52
2022-09-03T13:52:13.966Z,76.49
2022-09-03T13:54:49.979Z,76.11
2022-09-03T13:57:16.744Z,75.39
2022-09-03T13:59:53.036Z,74.40
2022-09-03T14:02:38.298Z,74.19
2022-09-03T14:05:28.045Z,74.05
2022-09-03T14:08:07.649Z,76.04
2022-09-03T14:11:03.620Z,74.39
2022-09-03T14:13:55.259Z,75.03
2022-09-03T14:16:38.083Z,71.50
2022-09-03T14:19:13.337Z,69.34
2022-09-03T14:21:52.835Z,69.99
2022-09-03T14:24:27.652Z,70.50
2022-09-03T14:26:59.435Z,69.17
2022-09-03T14:29:31.238Z,70.13
2022-09-03T14:32:23.697Z,70.62
2022-09-03T14:34:56.169Z,70.98
2022-09-03T14:37:54.580Z,71.24
2022-09-03T14:40:42.407Z,70.31
2022-09-03T14:43:37.164Z,71.05
2022-09-03T14:46:15.638Z,70.20
2022-09-03T14:49:06.717Z,69.71
2022-09-03T14:51:39.777Z,71.02
2022-09-03T14:54:18.709Z,71.20
2022-09-03T14:57:13.871Z,71.72
2022-09-03T15:00:20.011Z,72.59
2022-09-03T15:02:50.689Z,73.48
2022-09-03T15:05:50.022Z,74.44
2022-09-03T15:08:43.009Z,74.60
2022-09-03T15:11:27.395Z,75.94
2022-09-03T15:14:06.273Z,77.20
2022-09-03T15:16:51.668Z,78.82
2022-09-03T15:19:39.914Z,79.09
2022-09-03T15:22:16.983Z,79.28
2022-09-03T15:24:55.593Z,79.15
2022-09-03T15:27:50.149Z,79.87
2022-09-03T15:30:20.134Z,80.74
2022-09-03T15:32:55.745Z,80.94
2022-09-03T15:35:52.332Z,74.43
2022-09-03T15:38:52.820Z,76.89
2022-09-03T15:41:36.247Z,74.47
2022-09-03T15:44:19.422Z,73.63
2022-09-03T15:46:56.828Z,76.84
2022-09-03T15:49:26.907Z,77.76
2022-09-03T15:52:09.843Z,78.77
2022-09-03T15:54:43.522Z,77.36
2022-09-03T15:57:14.023Z,77.33
2022-09-03T15:59:49.755Z,77.42
2022-09-03T16:02:21.990Z,78.33
2022-09-03T16:05:16.429Z,78.42
2022-09-03T16:08:06.089Z,78.54
2022-09-03T16:11:06.888Z,77.14
2022-09-03T16:13:42.242Z,77.62
2022-09-03T16:16:11.902Z,78.18
2022-09-03T16:19:02.324Z,77.74
2022-09-03T16:21:55.287Z,77.95
2022-09-03T16:24:45.312Z,79.47
2022-09-03T16:27:28.327Z,78.84
2022-09-03T16:30:03.541Z,79.04
2022-09-03T16:32:48.259Z,78.68
2022-09-03T16:35:43.070Z,78.99
2022-09-03T16:38:31.905Z,79.25
2022-09-03T16:41:22.155Z,79.00
2022-09-03T16:44:04.232Z,78.02
2022-09-03T16:47:08.143Z,75.51
2022-09-03T16:49:50.104Z,75.84
2022-09-03T16:52:41.796Z,72.19
2022-09-03T16:55:44.208Z,73.49
2022-09-03T16:58:22.706Z,71.45
2022-09-03T17:01:07.051Z,71.81
2022-09-03T17:03:38.946Z,69.75
2022-09-03T17:06:30.850Z,70.59
2022-09-03T17:09:23.992Z,71.52
2022-09-03T17:12:26.277Z,72.77
2022-09-03T17:15:02.805Z,72.99
2022-09-03T17:17:41.720Z,72.62
2022-09-03T17:20:37.503Z,74.43
2022-09-03T17:23:06.816Z,74.82
2022-09-03T17:25:40.636Z,75.40
2022-09-03T17:28:39.445Z,76.53
2022-09-03T17:31:06.328Z,76.35
2022-09-03T17:33:32.956Z,77.34
2022-09-03T17:36:16.160Z,77.88
2022-09-03T17:39:19.253Z,78.03
2022-09-03T17:41:46.301Z,78.44
2022-09-03T17:44:24.038Z,78.92
2022-09-03T17:47:06.415Z,79.01
2022-09-03T17:49:42.902Z,79.07
2022-09-03T17:52:20.504Z,79.38
2022-09-03T17:54:54.694Z,79.04
2022-09-03T17:57:31.124Z,79.37
2022-09-03T18:00:08.495Z,79.34
2022-09-03T18:02:52.294Z,79.34
2022-09-03T18:05:26.751Z,79.51
2022-09-03T18:08:11.701Z,79.77
2022-09-03T18:10:50.074Z,79.82
2022-09-03T18:13:24.015Z,79.97
2022-09-03T18:16:05.680Z,80.13
2022-09-03T18:18:34.628Z,80.00
2022-09-03T18:21:26.408Z,80.13
2022-09-03T18:24:19.072Z,80.35
2022-09-03T18:27:20.228Z,80.30
2022-09-03T18:30:32.992Z,80.04
2022-09-03T18:33:18.544Z,79.87
2022-09-03T18:36:05.491Z,80.08
2022-09-03T18:38:53.676Z,80.04
2022-09-03T18:41:57.969Z,80.09
2022-09-03T18:44:57.751Z,80.17
2022-09-03T18:48:08.433Z,79.97
2022-09-03T18:51:05.555Z,80.08
2022-09-03T18:54:09.783Z,80.11
2022-09-03T18:57:07.427Z,80.05
2022-09-03T19:00:37.398Z,80.04
2022-09-03T19:03:48.207Z,80.34
2022-09-03T19:06:54.503Z,80.58
2022-09-03T19:10:06.099Z,80.78
2022-09-03T19:13:06.637Z,80.81
2022-09-03T19:16:01.125Z,81.06
2022-09-03T19:19:02.361Z,81.12
2022-09-03T19:21:59.979Z,81.04
2022-09-03T19:24:48.520Z,81.34
2022-09-03T19:28:00.262Z,81.39
2022-09-03T19:30:55.177Z,81.47
2022-09-03T19:33:52.277Z,81.14
2022-09-03T19:36:56.488Z,80.85
2022-09-03T19:40:07.413Z,80.72
2022-09-03T19:43:40.984Z,81.00
2022-09-03T19:46:54.041Z,81.08
2022-09-03T19:50:02.265Z,81.40
2022-09-03T19:52:53.840Z,81.59
2022-09-03T19:55:45.252Z,81.59
2022-09-03T19:58:43.253Z,81.72
2022-09-03T20:01:30.505Z,81.75
2022-09-03T20:04:18.692Z,81.73
2022-09-03T20:07:04.532Z,81.72
2022-09-03T20:09:54.746Z,82.07
2022-09-03T20:12:22.630Z,82.13
2022-09-03T20:14:49.362Z,82.11
2022-09-03T20:17:56.011Z,82.07
2022-09-03T20:20:55.138Z,82.41
2022-09-03T20:23:41.244Z,82.51
2022-09-03T20:26:49.609Z,82.80
2022-09-03T20:29:41.616Z,82.92
2022-09-03T20:32:12.266Z,83.15
2022-09-03T20:34:56.660Z,83.12
2022-09-03T20:37:42.279Z,83.24
2022-09-03T20:40:28.715Z,83.14
2022-09-03T20:43:06.254Z,83.00
2022-09-03T20:45:44.498Z,83.04
2022-09-03T20:48:22.057Z,83.15
2022-09-03T20:51:01.985Z,83.14
2022-09-03T20:53:43.999Z,83.12
2022-09-03T20:56:22.841Z,83.28
2022-09-03T20:59:11.013Z,83.31
2022-09-03T21:02:02.056Z,83.17
2022-09-03T21:05:00.084Z,83.01
2022-09-03T21:07:53.379Z,83.08
2022-09-03T21:10:34.953Z,83.15
2022-09-03T21:13:38.531Z,83.63
2022-09-03T21:16:30.549Z,83.68
2022-09-03T21:19:18.120Z,84.03
2022-09-03T21:21:48.056Z,84.23
2022-09-03T21:24:23.437Z,84.63
2022-09-03T21:27:03.719Z,84.67
2022-09-03T21:29:58.492Z,84.65
2022-09-03T21:32:30.781Z,84.59
2022-09-03T21:35:29.079Z,84.75
2022-09-03T21:37:59.912Z,84.81
2022-09-03T21:40:32.298Z,84.88
2022-09-03T21:43:34.835Z,85.00
2022-09-03T21:46:17.631Z,85.20
2022-09-03T21:48:59.722Z,85.35
2022-09-03T21:51:42.832Z,85.52
2022-09-03T21:54:18.416Z,85.84
2022-09-03T21:56:47.835Z,85.75
2022-09-03T21:59:17.219Z,85.63
2022-09-03T22:01:55.819Z,85.44
2022-09-03T22:04:22.835Z,85.17
2022-09-03T22:07:05.774Z,84.83
2022-09-03T22:09:42.127Z,84.77
2022-09-03T22:12:18.272Z,84.46
2022-09-03T22:14:51.381Z,84.26
2022-09-03T22:17:36.170Z,84.20
2022-09-03T22:20:20.566Z,84.16
2022-09-03T22:23:02.004Z,83.96
2022-09-03T22:26:03.882Z,84.02
2022-09-03T22:28:56.464Z,83.86
2022-09-03T22:32:06.151Z,83.86
2022-09-03T22:34:44.666Z,84.14
2022-09-03T22:37:47.925Z,84.01
2022-09-03T22:40:50.735Z,83.79
2022-09-03T22:43:46.892Z,83.40
2022-09-03T22:46:21.896Z,83.71
2022-09-03T22:49:28.177Z,83.88
2022-09-03T22:52:21.598Z,84.26
2022-09-03T22:55:20.535Z,84.64
2022-09-03T22:58:19.190Z,85.04
2022-09-03T23:01:24.120Z,85.13
2022-09-03T23:03:55.880Z,85.18
2022-09-03T23:06:32.950Z,85.32
2022-09-03T23:09:21.862Z,85.63
2022-09-03T23:12:46.562Z,85.32
2022-09-03T23:15:35.002Z,85.21
2022-09-03T23:18:26.958Z,85.09
2022-09-03T23:21:18.570Z,85.24
2022-09-03T23:24:04.887Z,85.31
2022-09-03T23:26:49.750Z,86.01
2022-09-03T23:29:38.649Z,86.03
2022-09-03T23:32:12.842Z,86.08
2022-09-03T23:34:59.932Z,86.54
2022-09-03T23:38:02.616Z,86.68
2022-09-03T23:40:42.683Z,86.79
2022-09-03T23:43:48.947Z,87.36
2022-09-03T23:46:54.089Z,87.62
2022-09-03T23:49:53.800Z,87.77
2022-09-03T23:52:58.284Z,87.80
2022-09-03T23:55:56.511Z,88.23
2022-09-03T23:59:08.405Z,88.36
